sensor_id;sensor_type;location;lat;lon;timestamp;P1;durP1;ratioP1;P2;durP2;ratioP2
19482;SDS011;9882;51.166;6.992;2022-10-04T04:00:47;9.70;;;4.38;;
19482;SDS011;9882;51.166;6.992;2022-10-04T04:03:31;10.80;;;4.35;;
19482;SDS011;9882;51.166;6.992;2022-10-04T04:06:11;10.57;;;4.20;;
19482;SDS011;9882;51.166;6.992;2022-10-04T04:08:43;9.00;;;3.88;;
19482;SDS011;9882;51.166;6.992;2022-10-04T04:11:17;8.27;;;3.92;;
19482;SDS011;9882;51.166;6.992;2022-10-04T04:13:50;16.35;;;4.30;;
19482;SDS011;9882;51.166;6.992;2022-10-04T04:16:28;8.63;;;4.15;;
19482;SDS011;9882;51.166;6.992;2022-10-04T04:18:58;10.00;;;3.95;;
19482;SDS011;9882;51.166;6.992;2022-10-04T04:21:29;10.30;;;4.20;;
19482;SDS011;9882;51.166;6.992;2022-10-04T04:23:59;13.13;;;4.50;;
19482;SDS011;9882;51.166;6.992;2022-10-04T04:26:33;11.90;;;4.22;;
19482;SDS011;9882;51.166;6.992;2022-10-04T04:29:10;8.18;;;3.65;;
19482;SDS011;9882;51.166;6.992;2022-10-04T04:31:49;11.32;;;3.90;;
19482;SDS011;9882;51.166;6.992;2022-10-04T04:34:20;10.07;;;4.05;;
19482;SDS011;9882;51.166;6.992;2022-10-04T04:36:55;8.73;;;3.97;;
19482;SDS011;9882;51.166;6.992;2022-10-04T04:39:25;15.18;;;4.85;;
19482;SDS011;9882;51.166;6.992;2022-10-04T04:42:04;13.32;;;4.53;;
19482;SDS011;9882;51.166;6.992;2022-10-04T04:44:44;10.15;;;4.38;;
19482;SDS011;9882;51.166;6.992;2022-10-04T04:47:20;11.18;;;4.30;;
19482;SDS011;9882;51.166;6.992;2022-10-04T04:49:56;11.35;;;5.07;;
19482;SDS011;9882;51.166;6.992;2022-10-04T04:52:30;15.82;;;5.45;;
19482;SDS011;9882;51.166;6.992;2022-10-04T04:54:59;24.95;;;8.52;;
19482;SDS011;9882;51.166;6.992;2022-10-04T04:57:28;13.82;;;5.47;;
19482;SDS011;9882;51.166;6.992;2022-10-04T04:59:59;12.43;;;4.78;;
19482;SDS011;9882;51.166;6.992;2022-10-04T05:02:30;14.65;;;5.20;;
19482;SDS011;9882;51.166;6.992;2022-10-04T05:05:17;14.45;;;5.45;;
19482;SDS011;9882;51.166;6.992;2022-10-04T05:07:47;17.40;;;5.30;;
19482;SDS011;9882;51.166;6.992;2022-10-04T05:10:20;21.65;;;5.82;;
19482;SDS011;9882;51.166;6.992;2022-10-04T05:12:56;17.52;;;5.88;;
19482;SDS011;9882;51.166;6.992;2022-10-04T05:15:27;16.38;;;5.55;;
19482;SDS011;9882;51.166;6.992;2022-10-04T05:18:11;14.82;;;6.07;;
19482;SDS011;9882;51.166;6.992;2022-10-04T05:20:45;15.57;;;6.00;;
19482;SDS011;9882;51.166;6.992;2022-10-04T05:23:17;13.00;;;5.20;;
19482;SDS011;9882;51.166;6.992;2022-10-04T05:25:45;18.17;;;5.72;;
19482;SDS011;9882;51.166;6.992;2022-10-04T05:28:15;12.32;;;5.60;;
19482;SDS011;9882;51.166;6.992;2022-10-04T05:30:50;14.43;;;5.25;;
19482;SDS011;9882;51.166;6.992;2022-10-04T05:33:38;17.17;;;5.47;;
19482;SDS011;9882;51.166;6.992;2022-10-04T05:36:24;18.60;;;5.78;;
19482;SDS011;9882;51.166;6.992;2022-10-04T05:39:16;14.45;;;5.03;;
19482;SDS011;9882;51.166;6.992;2022-10-04T05:41:53;15.77;;;5.43;;
19482;SDS011;9882;51.166;6.992;2022-10-04T05:44:27;16.13;;;5.43;;
19482;SDS011;9882;51.166;6.992;2022-10-04T05:46:57;17.13;;;5.57;;
19482;SDS011;9882;51.166;6.992;2022-10-04T05:49:30;11.35;;;4.65;;
19482;SDS011;9882;51.166;6.992;2022-10-04T05:52:12;16.20;;;4.95;;
19482;SDS011;9882;51.166;6.992;2022-10-04T05:54:41;13.45;;;5.35;;
19482;SDS011;9882;51.166;6.992;2022-10-04T05:57:19;12.00;;;5.10;;
19482;SDS011;9882;51.166;6.992;2022-10-04T06:00:00;12.10;;;5.35;;
19482;SDS011;9882;51.166;6.992;2022-10-04T06:06:01;16.20;;;5.05;;
19482;SDS011;9882;51.166;6.992;2022-10-04T06:08:40;11.63;;;4.93;;
19482;SDS011;9882;51.166;6.992;2022-10-04T06:11:27;11.10;;;4.20;;
19482;SDS011;9882;51.166;6.992;2022-10-04T06:14:20;15.23;;;4.90;;
19482;SDS011;9882;51.166;6.992;2022-10-04T06:17:21;15.10;;;4.97;;
19482;SDS011;9882;51.166;6.992;2022-10-04T06:20:23;14.65;;;4.78;;
19482;SDS011;9882;51.166;6.992;2022-10-04T06:23:12;8.27;;;4.00;;
19482;SDS011;9882;51.166;6.992;2022-10-04T06:25:44;16.08;;;5.00;;
19482;SDS011;9882;51.166;6.992;2022-10-04T06:28:17;13.57;;;4.28;;
19482;SDS011;9882;51.166;6.992;2022-10-04T06:31:02;17.10;;;4.80;;
19482;SDS011;9882;51.166;6.992;2022-10-04T06:33:51;8.50;;;4.03;;
19482;SDS011;9882;51.166;6.992;2022-10-04T06:36:40;13.05;;;4.63;;
19482;SDS011;9882;51.166;6.992;2022-10-04T06:45:30;12.50;;;4.72;;
19482;SDS011;9882;51.166;6.992;2022-10-04T06:48:27;8.07;;;4.20;;
19482;SDS011;9882;51.166;6.992;2022-10-04T06:51:15;15.88;;;4.80;;
19482;SDS011;9882;51.166;6.992;2022-10-04T06:53:58;16.20;;;4.70;;
19482;SDS011;9882;51.166;6.992;2022-10-04T07:04:53;13.68;;;4.72;;
19482;SDS011;9882;51.166;6.992;2022-10-04T07:08:23;10.57;;;4.65;;
19482;SDS011;9882;51.166;6.992;2022-10-04T07:12:30;12.88;;;4.75;;
19482;SDS011;9882;51.166;6.992;2022-10-04T07:19:02;17.95;;;5.72;;
19482;SDS011;9882;51.166;6.992;2022-10-04T07:30:11;16.33;;;4.47;;
19482;SDS011;9882;51.166;6.992;2022-10-04T07:33:20;20.25;;;5.22;;
19482;SDS011;9882;51.166;6.992;2022-10-04T07:36:52;11.70;;;4.63;;
19482;SDS011;9882;51.166;6.992;2022-10-04T07:44:06;12.82;;;4.82;;
19482;SDS011;9882;51.166;6.992;2022-10-04T07:57:35;15.88;;;5.75;;
19482;SDS011;9882;51.166;6.992;2022-10-04T08:08:24;16.38;;;5.13;;
19482;SDS011;9882;51.166;6.992;2022-10-04T08:39:43;14.95;;;4.90;;
19482;SDS011;9882;51.166;6.992;2022-10-04T09:06:15;15.45;;;5.25;;
19482;SDS011;9882;51.166;6.992;2022-10-04T09:17:27;14.82;;;5.47;;
19482;SDS011;9882;51.166;6.992;2022-10-04T09:20:23;10.65;;;4.70;;
19482;SDS011;9882;51.166;6.992;2022-10-04T09:53:17;9.32;;;4.45;;
19482;SDS011;9882;51.166;6.992;2022-10-04T10:23:57;12.27;;;4.15;;
19482;SDS011;9882;51.166;6.992;2022-10-04T10:32:18;12.20;;;4.57;;
19482;SDS011;9882;51.166;6.992;2022-10-04T10:56:37;9.60;;;3.80;;
19482;SDS011;9882;51.166;6.992;2022-10-04T11:28:23;13.48;;;4.15;;
19482;SDS011;9882;51.166;6.992;2022-10-04T11:39:13;10.50;;;3.50;;
19482;SDS011;9882;51.166;6.992;2022-10-04T11:53:12;12.80;;;4.28;;
19482;SDS011;9882;51.166;6.992;2022-10-04T11:57:05;10.25;;;3.50;;
19482;SDS011;9882;51.166;6.992;2022-10-04T12:04:14;7.00;;;3.45;;
19482;SDS011;9882;51.166;6.992;2022-10-04T12:18:59;9.85;;;3.28;;
19482;SDS011;9882;51.166;6.992;2022-10-04T12:22:33;20.08;;;4.07;;
19482;SDS011;9882;51.166;6.992;2022-10-04T12:26:00;9.82;;;3.55;;
19482;SDS011;9882;51.166;6.992;2022-10-04T12:33:08;10.80;;;3.65;;
19482;SDS011;9882;51.166;6.992;2022-10-04T12:42:32;8.20;;;3.17;;
19482;SDS011;9882;51.166;6.992;2022-10-04T12:45:21;11.10;;;3.58;;
19482;SDS011;9882;51.166;6.992;2022-10-04T12:48:14;10.57;;;4.00;;
19482;SDS011;9882;51.166;6.992;2022-10-04T12:50:52;11.48;;;3.40;;
19482;SDS011;9882;51.166;6.992;2022-10-04T12:53:35;11.32;;;3.72;;
19482;SDS011;9882;51.166;6.992;2022-10-04T12:56:14;9.85;;;3.63;;
19482;SDS011;9882;51.166;6.992;2022-10-04T12:59:02;22.17;;;4.50;;
19482;SDS011;9882;51.166;6.992;2022-10-04T13:01:44;8.45;;;3.28;;
19482;SDS011;9882;51.166;6.992;2022-10-04T13:04:20;7.70;;;3.15;;
19482;SDS011;9882;51.166;6.992;2022-10-04T13:06:59;9.77;;;3.72;;
19482;SDS011;9882;51.166;6.992;2022-10-04T13:09:50;7.50;;;3.22;;
19482;SDS011;9882;51.166;6.992;2022-10-04T13:12:59;17.13;;;3.85;;
19482;SDS011;9882;51.166;6.992;2022-10-04T13:15:46;10.90;;;3.50;;
19482;SDS011;9882;51.166;6.992;2022-10-04T13:18:43;11.93;;;3.63;;
19482;SDS011;9882;51.166;6.992;2022-10-04T13:21:19;9.63;;;3.63;;
19482;SDS011;9882;51.166;6.992;2022-10-04T13:23:54;10.75;;;3.70;;
19482;SDS011;9882;51.166;6.992;2022-10-04T13:26:34;7.97;;;3.40;;
19482;SDS011;9882;51.166;6.992;2022-10-04T13:29:13;14.10;;;3.78;;
19482;SDS011;9882;51.166;6.992;2022-10-04T13:31:51;16.05;;;4.13;;
19482;SDS011;9882;51.166;6.992;2022-10-04T13:34:27;7.30;;;3.13;;
19482;SDS011;9882;51.166;6.992;2022-10-04T13:37:06;14.57;;;3.47;;
19482;SDS011;9882;51.166;6.992;2022-10-04T13:46:03;13.60;;;3.50;;
19482;SDS011;9882;51.166;6.992;2022-10-04T13:48:51;11.77;;;3.47;;
19482;SDS011;9882;51.166;6.992;2022-10-04T13:51:36;9.50;;;3.60;;
19482;SDS011;9882;51.166;6.992;2022-10-04T13:54:17;15.05;;;3.60;;
19482;SDS011;9882;51.166;6.992;2022-10-04T13:57:17;14.93;;;3.88;;
19482;SDS011;9882;51.166;6.992;2022-10-04T13:59:51;6.65;;;3.00;;
19482;SDS011;9882;51.166;6.992;2022-10-04T14:11:27;6.88;;;2.85;;
19482;SDS011;9882;51.166;6.992;2022-10-04T14:17:31;5.80;;;3.05;;
19482;SDS011;9882;51.166;6.992;2022-10-04T14:20:34;5.50;;;3.05;;
19482;SDS011;9882;51.166;6.992;2022-10-04T14:26:33;9.00;;;3.00;;
19482;SDS011;9882;51.166;6.992;2022-10-04T14:35:19;10.10;;;2.80;;
19482;SDS011;9882;51.166;6.992;2022-10-04T14:37:59;5.88;;;3.00;;
19482;SDS011;9882;51.166;6.992;2022-10-04T14:40:57;10.38;;;3.15;;
19482;SDS011;9882;51.166;6.992;2022-10-04T14:46:43;7.60;;;2.72;;
19482;SDS011;9882;51.166;6.992;2022-10-04T14:49:25;7.40;;;2.88;;
19482;SDS011;9882;51.166;6.992;2022-10-04T14:52:19;7.93;;;2.70;;
19482;SDS011;9882;51.166;6.992;2022-10-04T14:55:07;7.38;;;2.85;;
19482;SDS011;9882;51.166;6.992;2022-10-04T14:57:47;3.47;;;2.40;;
19482;SDS011;9882;51.166;6.992;2022-10-04T15:00:34;12.80;;;3.47;;
19482;SDS011;9882;51.166;6.992;2022-10-04T15:03:29;4.18;;;2.70;;
19482;SDS011;9882;51.166;6.992;2022-10-04T15:06:11;10.18;;;3.17;;
19482;SDS011;9882;51.166;6.992;2022-10-04T15:11:48;8.25;;;3.22;;
19482;SDS011;9882;51.166;6.992;2022-10-04T15:14:41;10.15;;;3.35;;
19482;SDS011;9882;51.166;6.992;2022-10-04T15:17:29;10.43;;;3.17;;
19482;SDS011;9882;51.166;6.992;2022-10-04T15:20:04;7.22;;;3.30;;
19482;SDS011;9882;51.166;6.992;2022-10-04T15:22:48;7.40;;;2.80;;
19482;SDS011;9882;51.166;6.992;2022-10-04T15:25:35;7.13;;;2.80;;
19482;SDS011;9882;51.166;6.992;2022-10-04T15:28:09;8.48;;;2.90;;
19482;SDS011;9882;51.166;6.992;2022-10-04T15:30:55;9.07;;;3.10;;
19482;SDS011;9882;51.166;6.992;2022-10-04T15:33:32;7.05;;;2.60;;
19482;SDS011;9882;51.166;6.992;2022-10-04T15:39:05;11.63;;;3.22;;
19482;SDS011;9882;51.166;6.992;2022-10-04T15:41:49;6.05;;;3.03;;
19482;SDS011;9882;51.166;6.992;2022-10-04T15:47:22;14.80;;;3.17;;
19482;SDS011;9882;51.166;6.992;2022-10-04T15:50:02;5.53;;;2.90;;
19482;SDS011;9882;51.166;6.992;2022-10-04T15:55:50;8.68;;;3.30;;
19482;SDS011;9882;51.166;6.992;2022-10-04T15:58:45;6.28;;;3.03;;
19482;SDS011;9882;51.166;6.992;2022-10-04T16:01:30;9.48;;;3.30;;
19482;SDS011;9882;51.166;6.992;2022-10-04T16:04:19;7.28;;;2.70;;
19482;SDS011;9882;51.166;6.992;2022-10-04T16:10:13;7.15;;;3.20;;
19482;SDS011;9882;51.166;6.992;2022-10-04T16:13:00;7.57;;;3.00;;
19482;SDS011;9882;51.166;6.992;2022-10-04T16:15:45;7.15;;;3.10;;
19482;SDS011;9882;51.166;6.992;2022-10-04T16:19:01;7.50;;;3.38;;
19482;SDS011;9882;51.166;6.992;2022-10-04T16:21:41;11.10;;;3.33;;
19482;SDS011;9882;51.166;6.992;2022-10-04T16:27:14;13.45;;;3.45;;
19482;SDS011;9882;51.166;6.992;2022-10-04T16:30:03;6.70;;;3.13;;
19482;SDS011;9882;51.166;6.992;2022-10-04T16:36:03;6.68;;;3.08;;
19482;SDS011;9882;51.166;6.992;2022-10-04T16:38:42;6.10;;;3.00;;
19482;SDS011;9882;51.166;6.992;2022-10-04T16:41:35;5.85;;;3.20;;
19482;SDS011;9882;51.166;6.992;2022-10-04T16:44:08;10.10;;;3.42;;
19482;SDS011;9882;51.166;6.992;2022-10-04T16:46:53;7.25;;;3.22;;
19482;SDS011;9882;51.166;6.992;2022-10-04T16:49:27;8.73;;;3.55;;
19482;SDS011;9882;51.166;6.992;2022-10-04T16:52:13;9.15;;;3.50;;
19482;SDS011;9882;51.166;6.992;2022-10-04T17:00:47;8.02;;;3.60;;
19482;SDS011;9882;51.166;6.992;2022-10-04T17:03:18;7.82;;;3.15;;
19482;SDS011;9882;51.166;6.992;2022-10-04T17:05:55;11.38;;;3.90;;
19482;SDS011;9882;51.166;6.992;2022-10-04T17:08:46;8.77;;;3.78;;
19482;SDS011;9882;51.166;6.992;2022-10-04T17:14:18;14.90;;;4.15;;
19482;SDS011;9882;51.166;6.992;2022-10-04T17:17:03;13.75;;;4.05;;
19482;SDS011;9882;51.166;6.992;2022-10-04T17:19:41;10.90;;;4.15;;
19482;SDS011;9882;51.166;6.992;2022-10-04T17:22:19;12.50;;;3.97;;
19482;SDS011;9882;51.166;6.992;2022-10-04T17:25:02;10.40;;;4.13;;
19482;SDS011;9882;51.166;6.992;2022-10-04T17:27:43;11.50;;;4.18;;
19482;SDS011;9882;51.166;6.992;2022-10-04T17:30:16;9.93;;;4.22;;
19482;SDS011;9882;51.166;6.992;2022-10-04T17:32:55;12.20;;;4.70;;
19482;SDS011;9882;51.166;6.992;2022-10-04T17:35:54;12.05;;;4.53;;
19482;SDS011;9882;51.166;6.992;2022-10-04T17:38:43;15.52;;;5.10;;
19482;SDS011;9882;51.166;6.992;2022-10-04T17:41:22;16.10;;;5.30;;
19482;SDS011;9882;51.166;6.992;2022-10-04T17:44:20;13.70;;;5.15;;
19482;SDS011;9882;51.166;6.992;2022-10-04T17:46:56;12.25;;;5.07;;
19482;SDS011;9882;51.166;6.992;2022-10-04T17:49:29;15.85;;;5.65;;
19482;SDS011;9882;51.166;6.992;2022-10-04T17:52:25;12.63;;;5.60;;
19482;SDS011;9882;51.166;6.992;2022-10-04T17:55:20;15.73;;;5.57;;
19482;SDS011;9882;51.166;6.992;2022-10-04T17:57:57;17.92;;;6.10;;
19482;SDS011;9882;51.166;6.992;2022-10-04T18:00:45;15.27;;;5.50;;
19482;SDS011;9882;51.166;6.992;2022-10-04T18:03:23;15.15;;;5.40;;
19482;SDS011;9882;51.166;6.992;2022-10-04T18:06:00;14.98;;;5.45;;
19482;SDS011;9882;51.166;6.992;2022-10-04T18:08:40;16.75;;;5.97;;
19482;SDS011;9882;51.166;6.992;2022-10-04T18:11:14;13.65;;;5.97;;
19482;SDS011;9882;51.166;6.992;2022-10-04T18:13:53;17.35;;;6.18;;
19482;SDS011;9882;51.166;6.992;2022-10-04T18:16:28;13.82;;;5.65;;
19482;SDS011;9882;51.166;6.992;2022-10-04T18:19:07;14.77;;;5.72;;
19482;SDS011;9882;51.166;6.992;2022-10-04T18:22:01;12.82;;;4.88;;
19482;SDS011;9882;51.166;6.992;2022-10-04T18:24:38;11.73;;;4.97;;
19482;SDS011;9882;51.166;6.992;2022-10-04T18:27:13;17.75;;;6.22;;
19482;SDS011;9882;51.166;6.992;2022-10-04T18:30:10;14.05;;;5.60;;
19482;SDS011;9882;51.166;6.992;2022-10-04T18:32:42;12.73;;;4.95;;
19482;SDS011;9882;51.166;6.992;2022-10-04T18:35:18;11.40;;;4.97;;
19482;SDS011;9882;51.166;6.992;2022-10-04T18:37:55;11.88;;;4.93;;
19482;SDS011;9882;51.166;6.992;2022-10-04T18:40:26;9.60;;;4.68;;
19482;SDS011;9882;51.166;6.992;2022-10-04T18:43:00;10.50;;;4.57;;
19482;SDS011;9882;51.166;6.992;2022-10-04T18:45:33;8.98;;;4.63;;
19482;SDS011;9882;51.166;6.992;2022-10-04T18:48:14;11.55;;;4.63;;
19482;SDS011;9882;51.166;6.992;2022-10-04T18:50:44;12.68;;;5.00;;
19482;SDS011;9882;51.166;6.992;2022-10-04T18:53:27;14.55;;;4.72;;
19482;SDS011;9882;51.166;6.992;2022-10-04T18:56:09;12.80;;;5.18;;
19482;SDS011;9882;51.166;6.992;2022-10-04T18:58:48;15.57;;;5.97;;
19482;SDS011;9882;51.166;6.992;2022-10-04T19:01:53;10.85;;;5.00;;
19482;SDS011;9882;51.166;6.992;2022-10-04T19:04:36;19.13;;;6.13;;
19482;SDS011;9882;51.166;6.992;2022-10-04T19:07:12;15.70;;;5.57;;
19482;SDS011;9882;51.166;6.992;2022-10-04T19:09:51;17.60;;;5.75;;
19482;SDS011;9882;51.166;6.992;2022-10-04T19:12:26;13.30;;;5.35;;
19482;SDS011;9882;51.166;6.992;2022-10-04T19:15:02;12.73;;;5.55;;
19482;SDS011;9882;51.166;6.992;2022-10-04T19:17:43;21.05;;;6.57;;
19482;SDS011;9882;51.166;6.992;2022-10-04T19:20:18;17.98;;;6.00;;
19482;SDS011;9882;51.166;6.992;2022-10-04T19:22:51;14.80;;;6.30;;
19482;SDS011;9882;51.166;6.992;2022-10-04T19:25:32;19.05;;;6.60;;
19482;SDS011;9882;51.166;6.992;2022-10-04T19:28:03;19.83;;;6.10;;
19482;SDS011;9882;51.166;6.992;2022-10-04T19:30:40;17.25;;;6.05;;
19482;SDS011;9882;51.166;6.992;2022-10-04T19:33:21;12.13;;;5.43;;
19482;SDS011;9882;51.166;6.992;2022-10-04T19:35:57;11.60;;;4.72;;
19482;SDS011;9882;51.166;6.992;2022-10-04T19:38:46;16.13;;;4.80;;
19482;SDS011;9882;51.166;6.992;2022-10-04T19:41:37;13.90;;;5.53;;
19482;SDS011;9882;51.166;6.992;2022-10-04T19:44:17;17.83;;;5.60;;
19482;SDS011;9882;51.166;6.992;2022-10-04T19:47:00;11.32;;;4.72;;
19482;SDS011;9882;51.166;6.992;2022-10-04T19:49:37;12.60;;;5.10;;
19482;SDS011;9882;51.166;6.992;2022-10-04T19:52:16;16.20;;;5.57;;
19482;SDS011;9882;51.166;6.992;2022-10-04T19:54:51;13.25;;;4.85;;
19482;SDS011;9882;51.166;6.992;2022-10-04T19:57:32;15.77;;;5.10;;
19482;SDS011;9882;51.166;6.992;2022-10-04T20:00:07;16.70;;;5.13;;
19482;SDS011;9882;51.166;6.992;2022-10-04T20:05:17;16.45;;;5.18;;
19482;SDS011;9882;51.166;6.992;2022-10-04T20:07:57;17.20;;;5.60;;
19482;SDS011;9882;51.166;6.992;2022-10-04T20:10:38;13.55;;;5.38;;
19482;SDS011;9882;51.166;6.992;2022-10-04T20:13:18;10.55;;;4.90;;
19482;SDS011;9882;51.166;6.992;2022-10-04T20:15:51;13.75;;;5.18;;
19482;SDS011;9882;51.166;6.992;2022-10-04T20:21:27;14.32;;;5.80;;
19482;SDS011;9882;51.166;6.992;2022-10-04T20:24:00;11.02;;;4.43;;
19482;SDS011;9882;51.166;6.992;2022-10-04T20:26:44;11.45;;;4.15;;
19482;SDS011;9882;51.166;6.992;2022-10-04T20:59:22;15.02;;;4.90;;
19482;SDS011;9882;51.166;6.992;2022-10-04T21:02:04;9.43;;;3.97;;
19482;SDS011;9882;51.166;6.992;2022-10-04T21:04:39;13.65;;;4.47;;
19482;SDS011;9882;51.166;6.992;2022-10-04T21:14:36;12.38;;;4.47;;
19482;SDS011;9882;51.166;6.992;2022-10-04T21:27:28;18.92;;;5.28;;
19482;SDS011;9882;51.166;6.992;2022-10-04T21:30:24;10.10;;;4.53;;
19482;SDS011;9882;51.166;6.992;2022-10-04T21:40:49;10.68;;;4.88;;
19482;SDS011;9882;51.166;6.992;2022-10-04T21:43:18;15.05;;;4.65;;
19482;SDS011;9882;51.166;6.992;2022-10-04T21:52:38;14.05;;;4.40;;
19482;SDS011;9882;51.166;6.992;2022-10-04T21:55:11;16.67;;;4.93;;
19482;SDS011;9882;51.166;6.992;2022-10-04T21:57:43;13.95;;;5.13;;
19482;SDS011;9882;51.166;6.992;2022-10-04T22:08:29;14.95;;;5.35;;
19482;SDS011;9882;51.166;6.992;2022-10-04T22:11:03;13.95;;;5.10;;
19482;SDS011;9882;51.166;6.992;2022-10-04T22:20:57;12.63;;;4.82;;
19482;SDS011;9882;51.166;6.992;2022-10-04T22:23:37;13.93;;;5.40;;
19482;SDS011;9882;51.166;6.992;2022-10-04T22:26:08;13.18;;;4.72;;
19482;SDS011;9882;51.166;6.992;2022-10-04T22:36:13;15.93;;;5.03;;
19482;SDS011;9882;51.166;6.992;2022-10-04T22:38:48;15.48;;;4.88;;
19482;SDS011;9882;51.166;6.992;2022-10-04T22:46:50;16.40;;;5.28;;
19482;SDS011;9882;51.166;6.992;2022-10-04T22:49:20;13.77;;;5.03;;
19482;SDS011;9882;51.166;6.992;2022-10-04T22:51:55;17.88;;;5.43;;
19482;SDS011;9882;51.166;6.992;2022-10-04T22:54:28;14.88;;;4.97;;
